createdAt,value
2018-08-03T00:01:36.063Z,99.80
2018-08-03T00:04:04.859Z,99.90
2018-08-03T00:06:33.660Z,99.80
2018-08-03T00:09:02.473Z,99.90
2018-08-03T00:11:31.275Z,99.90
2018-08-03T00:14:00.068Z,99.90
2018-08-03T00:16:28.882Z,99.80
2018-08-03T00:18:57.646Z,99.90
2018-08-03T00:21:26.452Z,99.90
2018-08-03T00:23:55.227Z,99.90
2018-08-03T00:26:24.022Z,99.90
2018-08-03T00:28:52.811Z,99.90
2018-08-03T00:31:21.975Z,99.90
2018-08-03T00:33:50.821Z,99.90
2018-08-03T00:36:19.611Z,99.80
2018-08-03T00:38:48.399Z,99.90
2018-08-03T00:41:17.195Z,99.80
2018-08-03T00:43:45.996Z,99.80
2018-08-03T00:46:14.783Z,99.70
2018-08-03T00:48:43.577Z,99.70
2018-08-03T00:51:12.383Z,99.60
2018-08-03T00:53:41.179Z,99.60
2018-08-03T00:56:09.984Z,99.70
2018-08-03T00:58:38.791Z,99.90
2018-08-03T01:01:07.596Z,99.90
2018-08-03T01:03:36.374Z,99.90
2018-08-03T01:06:05.158Z,99.90
2018-08-03T01:08:33.964Z,99.90
2018-08-03T01:11:02.756Z,99.90
2018-08-03T01:13:31.540Z,99.90
2018-08-03T01:16:00.319Z,99.90
2018-08-03T01:18:29.115Z,99.90
2018-08-03T01:20:57.890Z,99.90
2018-08-03T01:23:26.682Z,99.90
2018-08-03T01:25:55.470Z,99.90
2018-08-03T01:28:24.256Z,99.90
2018-08-03T01:30:53.039Z,99.90
2018-08-03T01:33:21.838Z,99.90
2018-08-03T01:35:50.620Z,99.90
2018-08-03T01:38:19.429Z,99.90
2018-08-03T01:40:48.210Z,99.90
2018-08-03T01:43:16.990Z,99.90
2018-08-03T01:45:45.782Z,99.90
2018-08-03T01:48:14.584Z,99.90
2018-08-03T01:50:43.371Z,99.90
2018-08-03T01:53:12.164Z,99.90
2018-08-03T01:55:40.946Z,99.90
2018-08-03T01:58:09.733Z,99.90
2018-08-03T02:00:38.506Z,99.90
2018-08-03T02:03:07.301Z,99.90
2018-08-03T02:05:36.083Z,99.90
2018-08-03T02:08:04.861Z,99.90
2018-08-03T02:10:33.729Z,99.90
2018-08-03T02:13:02.526Z,99.90
2018-08-03T02:15:31.302Z,99.90
2018-08-03T02:18:00.084Z,99.90
2018-08-03T02:20:28.870Z,99.90
2018-08-03T02:22:57.693Z,99.90
2018-08-03T02:25:26.489Z,99.90
2018-08-03T02:27:55.272Z,99.90
2018-08-03T02:30:24.178Z,99.90
2018-08-03T02:32:52.978Z,99.90
2018-08-03T02:35:21.782Z,99.90
2018-08-03T02:37:50.998Z,99.90
2018-08-03T02:40:19.793Z,99.90
2018-08-03T02:42:48.586Z,99.90
2018-08-03T02:45:17.394Z,99.90
2018-08-03T02:47:46.176Z,99.90
2018-08-03T02:50:14.980Z,99.90
2018-08-03T02:52:43.764Z,99.90
2018-08-03T02:55:12.558Z,99.90
2018-08-03T02:57:41.338Z,99.90
2018-08-03T03:00:10.134Z,99.90
2018-08-03T03:02:38.930Z,99.90
2018-08-03T03:05:07.732Z,99.90
2018-08-03T03:07:36.519Z,99.90
2018-08-03T03:10:05.322Z,99.90
2018-08-03T03:12:34.114Z,99.90
2018-08-03T03:15:02.926Z,99.90
2018-08-03T03:17:31.730Z,99.90
2018-08-03T03:20:00.522Z,99.90
2018-08-03T03:22:29.305Z,99.90
2018-08-03T03:24:58.114Z,99.90
2018-08-03T03:27:26.898Z,99.90
2018-08-03T03:29:55.683Z,99.90
2018-08-03T03:32:24.519Z,99.90
2018-08-03T03:34:53.261Z,99.90
2018-08-03T03:37:22.047Z,99.90
2018-08-03T03:39:50.847Z,99.90
2018-08-03T03:42:19.765Z,99.90
2018-08-03T03:44:48.562Z,99.90
2018-08-03T03:47:17.371Z,99.90
2018-08-03T03:49:46.166Z,99.90
2018-08-03T03:52:14.968Z,99.90
2018-08-03T03:54:43.892Z,99.90
2018-08-03T03:57:12.718Z,99.90
2018-08-03T03:59:41.510Z,99.90
2018-08-03T04:02:10.306Z,99.90
2018-08-03T04:04:39.086Z,99.90
2018-08-03T04:07:07.885Z,99.90
2018-08-03T04:09:36.673Z,99.90
2018-08-03T04:12:05.569Z,99.90
2018-08-03T04:14:34.349Z,99.90
2018-08-03T04:17:03.150Z,99.90
2018-08-03T04:19:31.949Z,99.90
2018-08-03T04:22:00.747Z,99.90
2018-08-03T04:24:29.538Z,99.90
2018-08-03T04:26:58.338Z,99.90
2018-08-03T04:29:27.122Z,99.90
2018-08-03T04:31:56.143Z,99.90
2018-08-03T04:34:24.930Z,99.90
2018-08-03T04:36:53.732Z,99.70
2018-08-03T04:39:22.523Z,99.60
2018-08-03T04:41:51.318Z,98.70
2018-08-03T04:44:20.106Z,98.20
2018-08-03T04:46:48.913Z,97.50
2018-08-03T04:49:17.702Z,96.90
2018-08-03T04:51:46.878Z,96.50
2018-08-03T04:54:15.681Z,95.60
2018-08-03T04:56:44.487Z,94.90
2018-08-03T04:59:13.274Z,94.10
2018-08-03T05:01:42.102Z,93.50
2018-08-03T05:04:11.156Z,92.80
2018-08-03T05:06:39.982Z,92.00
2018-08-03T05:09:08.914Z,91.30
2018-08-03T05:11:37.702Z,90.40
2018-08-03T05:14:06.490Z,89.80
2018-08-03T05:16:35.373Z,87.90
2018-08-03T05:19:04.159Z,87.10
2018-08-03T05:21:32.969Z,84.90
2018-08-03T05:24:01.947Z,84.10
2018-08-03T05:26:30.742Z,83.00
2018-08-03T05:28:59.778Z,81.70
2018-08-03T05:31:28.570Z,80.40
2018-08-03T05:33:57.362Z,78.90
2018-08-03T05:36:26.158Z,77.90
2018-08-03T05:38:54.958Z,76.10
2018-08-03T05:41:23.740Z,74.70
2018-08-03T05:43:52.859Z,73.20
2018-08-03T05:46:21.650Z,71.50
2018-08-03T05:48:50.445Z,69.70
2018-08-03T05:51:19.238Z,69.80
2018-08-03T05:53:48.038Z,67.60
2018-08-03T05:56:16.834Z,64.50
2018-08-03T05:58:45.634Z,62.50
2018-08-03T06:01:14.414Z,58.10
2018-08-03T06:03:43.214Z,57.60
2018-08-03T06:06:12.017Z,56.00
2018-08-03T06:08:40.810Z,55.00
2018-08-03T06:11:09.602Z,53.70
2018-08-03T06:13:38.398Z,52.30
2018-08-03T06:16:07.199Z,50.40
2018-08-03T06:18:35.990Z,48.90
2018-08-03T06:21:04.770Z,47.30
2018-08-03T06:23:33.562Z,45.80
2018-08-03T06:26:02.345Z,43.80
2018-08-03T06:28:31.153Z,43.40
2018-08-03T06:30:59.922Z,44.40
2018-08-03T06:33:28.710Z,43.00
2018-08-03T06:35:57.598Z,42.30
2018-08-03T06:38:26.422Z,43.20
2018-08-03T06:40:55.236Z,43.40
2018-08-03T06:43:24.075Z,43.50
2018-08-03T06:45:52.862Z,42.80
2018-08-03T06:48:21.714Z,45.20
2018-08-03T06:50:50.526Z,45.00
2018-08-03T06:53:19.369Z,46.10
2018-08-03T06:55:48.166Z,44.70
2018-08-03T06:58:17.031Z,45.90
2018-08-03T07:00:45.853Z,47.00
2018-08-03T07:03:14.674Z,48.20
2018-08-03T07:05:43.469Z,50.10
2018-08-03T07:08:12.254Z,50.60
2018-08-03T07:10:41.049Z,51.40
2018-08-03T07:13:09.834Z,52.20
2018-08-03T07:15:38.635Z,51.70
2018-08-03T07:18:07.738Z,50.30
2018-08-03T07:20:36.565Z,48.90
2018-08-03T07:23:05.336Z,48.80
2018-08-03T07:25:34.129Z,49.90
2018-08-03T07:28:02.938Z,50.50
2018-08-03T07:30:31.726Z,50.30
2018-08-03T07:33:00.518Z,49.90
2018-08-03T07:35:29.302Z,49.30
2018-08-03T07:37:58.092Z,49.80
2018-08-03T07:40:26.883Z,51.50
2018-08-03T07:42:55.825Z,51.40
2018-08-03T07:45:24.623Z,51.60
2018-08-03T07:47:53.739Z,52.20
2018-08-03T07:50:22.562Z,52.80
2018-08-03T07:52:51.350Z,53.00
2018-08-03T07:55:20.152Z,53.60
2018-08-03T07:57:48.971Z,53.50
2018-08-03T08:00:17.797Z,53.50
2018-08-03T08:02:46.946Z,54.10
2018-08-03T08:05:15.858Z,54.40
2018-08-03T08:07:44.958Z,53.80
2018-08-03T08:10:13.750Z,54.10
2018-08-03T08:12:42.545Z,53.50
2018-08-03T08:15:11.351Z,54.10
2018-08-03T08:17:40.113Z,55.50
2018-08-03T08:20:08.913Z,54.90
2018-08-03T08:22:37.699Z,54.70
2018-08-03T08:25:06.683Z,54.60
2018-08-03T08:27:35.618Z,54.80
2018-08-03T08:30:05.127Z,54.30
2018-08-03T08:32:33.930Z,54.20
2018-08-03T08:35:02.770Z,55.50
2018-08-03T08:37:31.598Z,56.60
2018-08-03T08:40:00.387Z,56.70
2018-08-03T08:42:29.560Z,55.10
2018-08-03T08:44:58.337Z,54.80
2018-08-03T08:47:27.227Z,56.20
2018-08-03T08:49:56.114Z,57.20
2018-08-03T08:52:25.253Z,57.40
2018-08-03T08:54:54.163Z,56.20
2018-08-03T08:57:22.894Z,56.10
2018-08-03T08:59:52.045Z,55.40
2018-08-03T09:02:20.842Z,54.50
2018-08-03T09:04:49.654Z,54.20
2018-08-03T09:07:18.454Z,55.30
2018-08-03T09:09:47.366Z,54.90
2018-08-03T09:12:16.167Z,53.90
2018-08-03T09:14:44.952Z,53.60
2018-08-03T09:17:13.806Z,53.40
2018-08-03T09:19:42.610Z,53.40
2018-08-03T09:22:11.796Z,54.10
2018-08-03T09:24:40.652Z,54.50
2018-08-03T09:27:09.544Z,54.70
2018-08-03T09:29:38.323Z,54.90
2018-08-03T09:32:07.119Z,55.50
2018-08-03T09:34:35.983Z,54.40
2018-08-03T09:37:05.386Z,52.20
2018-08-03T09:39:34.190Z,51.30
2018-08-03T09:42:03.006Z,51.40
2018-08-03T09:44:31.799Z,51.10
2018-08-03T09:47:00.616Z,51.20
2018-08-03T09:49:29.402Z,51.90
2018-08-03T09:51:58.227Z,51.10
2018-08-03T09:54:27.018Z,51.20
2018-08-03T09:56:55.803Z,51.00
2018-08-03T09:59:24.614Z,50.10
2018-08-03T10:01:53.492Z,49.90
2018-08-03T10:04:22.210Z,50.00
2018-08-03T10:06:51.002Z,50.70
2018-08-03T10:09:19.800Z,51.30
2018-08-03T10:11:48.597Z,50.70
2018-08-03T10:14:17.386Z,49.70
2018-08-03T10:16:46.174Z,50.30
2018-08-03T10:19:15.006Z,52.60
2018-08-03T10:21:43.794Z,54.80
2018-08-03T10:24:12.597Z,54.80
2018-08-03T10:26:41.502Z,54.90
2018-08-03T10:29:10.395Z,55.90
2018-08-03T10:31:39.203Z,56.70
2018-08-03T10:34:08.002Z,56.50
2018-08-03T10:36:36.799Z,56.40
2018-08-03T10:39:07.329Z,57.20
2018-08-03T10:41:36.386Z,57.40
2018-08-03T10:44:05.194Z,57.80
2018-08-03T10:46:34.005Z,58.20
2018-08-03T10:49:02.797Z,58.40
2018-08-03T10:51:31.710Z,58.50
2018-08-03T10:54:00.429Z,58.70
2018-08-03T10:56:29.247Z,59.30
2018-08-03T10:58:58.054Z,60.20
2018-08-03T11:01:26.935Z,61.30
2018-08-03T11:03:55.667Z,61.50
2018-08-03T11:06:24.458Z,60.70
2018-08-03T11:08:53.270Z,62.10
2018-08-03T11:11:22.062Z,62.20
2018-08-03T11:13:50.873Z,60.90
2018-08-03T11:16:19.658Z,60.30
2018-08-03T11:18:48.474Z,59.70
2018-08-03T11:21:17.269Z,61.70
2018-08-03T11:23:46.090Z,61.60
2018-08-03T11:26:14.902Z,61.20
2018-08-03T11:28:43.702Z,61.30
2018-08-03T11:31:12.497Z,60.30
2018-08-03T11:33:41.286Z,59.50
2018-08-03T11:36:10.112Z,59.60
2018-08-03T11:38:38.911Z,59.50
2018-08-03T11:41:07.738Z,59.60
2018-08-03T11:43:36.538Z,59.50
2018-08-03T11:46:05.381Z,59.40
2018-08-03T11:48:34.170Z,59.30
2018-08-03T11:51:02.982Z,59.20
2018-08-03T11:53:31.825Z,59.70
2018-08-03T11:56:00.627Z,60.00
2018-08-03T11:58:29.439Z,59.80
2018-08-03T12:00:58.268Z,59.90
2018-08-03T12:03:27.030Z,60.00
2018-08-03T12:05:55.866Z,59.30
2018-08-03T12:08:24.775Z,58.60
2018-08-03T12:10:53.590Z,58.50
2018-08-03T12:13:22.386Z,58.20
2018-08-03T12:15:51.198Z,58.10
2018-08-03T12:18:19.989Z,58.20
2018-08-03T12:20:48.781Z,58.10
2018-08-03T12:23:17.590Z,57.40
2018-08-03T12:25:46.382Z,57.80
2018-08-03T12:28:15.190Z,57.30
2018-08-03T12:30:43.986Z,57.90
2018-08-03T12:33:12.790Z,57.40
2018-08-03T12:35:41.601Z,57.20
2018-08-03T12:38:10.373Z,57.00
2018-08-03T12:40:39.174Z,56.50
2018-08-03T12:43:07.962Z,56.70
2018-08-03T12:45:36.848Z,57.00
2018-08-03T12:48:05.638Z,56.60
2018-08-03T12:50:34.459Z,56.20
2018-08-03T12:53:03.235Z,55.50
2018-08-03T12:55:32.026Z,55.90
2018-08-03T12:58:00.834Z,55.40
2018-08-03T13:00:29.621Z,55.80
2018-08-03T13:02:58.427Z,55.70
2018-08-03T13:05:27.267Z,55.50
2018-08-03T13:07:56.287Z,56.40
2018-08-03T13:10:24.938Z,55.50
2018-08-03T13:12:53.734Z,55.10
2018-08-03T13:15:22.523Z,54.50
2018-08-03T13:17:51.314Z,54.70
2018-08-03T13:20:20.110Z,54.50
2018-08-03T13:22:48.906Z,55.10
2018-08-03T13:25:17.694Z,54.80
2018-08-03T13:27:46.482Z,54.30
2018-08-03T13:30:15.350Z,54.60
2018-08-03T13:32:44.145Z,54.10
2018-08-03T13:35:12.942Z,53.70
2018-08-03T13:37:41.743Z,54.00
2018-08-03T13:40:10.551Z,54.00
2018-08-03T13:42:39.349Z,54.30
2018-08-03T13:45:08.129Z,54.70
2018-08-03T13:47:36.933Z,54.70
2018-08-03T13:50:05.761Z,54.80
2018-08-03T13:52:34.603Z,55.10
2018-08-03T13:55:03.494Z,55.00
2018-08-03T13:57:32.307Z,55.00
2018-08-03T14:00:01.121Z,54.50
2018-08-03T14:02:29.910Z,54.70
2018-08-03T14:04:58.726Z,54.10
2018-08-03T14:07:27.730Z,54.10
2018-08-03T14:09:56.522Z,54.00
2018-08-03T14:12:25.309Z,54.50
2018-08-03T14:14:54.109Z,53.50
2018-08-03T14:17:22.898Z,53.70
2018-08-03T14:19:51.693Z,53.80
2018-08-03T14:22:20.494Z,53.60
2018-08-03T14:24:49.399Z,54.00
2018-08-03T14:27:18.193Z,53.40
2018-08-03T14:29:46.994Z,54.20
2018-08-03T14:32:15.779Z,53.40
2018-08-03T14:34:44.570Z,53.30
2018-08-03T14:37:13.356Z,53.50
2018-08-03T14:39:42.145Z,53.40
2018-08-03T14:42:10.930Z,53.90
2018-08-03T14:44:39.738Z,54.10
2018-08-03T14:47:08.527Z,53.60
2018-08-03T14:49:37.331Z,53.40
2018-08-03T14:52:06.410Z,53.10
2018-08-03T14:54:35.210Z,53.30
2018-08-03T14:57:04.001Z,53.80
2018-08-03T14:59:32.800Z,53.30
2018-08-03T15:02:01.598Z,53.20
2018-08-03T15:04:31.059Z,53.10
2018-08-03T15:06:59.854Z,53.30
2018-08-03T15:09:28.706Z,53.90
2018-08-03T15:11:57.502Z,52.90
2018-08-03T15:14:26.309Z,53.40
2018-08-03T15:16:55.113Z,52.90
2018-08-03T15:19:23.958Z,52.60
2018-08-03T15:21:52.746Z,52.30
2018-08-03T15:24:21.543Z,52.00
2018-08-03T15:26:50.418Z,51.80
2018-08-03T15:29:19.373Z,51.60
2018-08-03T15:31:48.155Z,52.30
2018-08-03T15:34:16.962Z,52.60
2018-08-03T15:36:45.793Z,53.00
2018-08-03T15:39:14.546Z,53.10
2018-08-03T15:41:43.354Z,53.00
2018-08-03T15:44:12.143Z,53.20
2018-08-03T15:46:40.958Z,53.40
2018-08-03T15:49:10.161Z,53.40
2018-08-03T15:51:39.030Z,53.70
2018-08-03T15:54:08.071Z,53.90
2018-08-03T15:56:36.894Z,53.70
2018-08-03T15:59:05.690Z,53.80
2018-08-03T16:01:34.486Z,54.20
2018-08-03T16:04:03.274Z,53.20
2018-08-03T16:06:32.149Z,53.70
2018-08-03T16:09:01.026Z,53.80
2018-08-03T16:11:29.822Z,53.80
2018-08-03T16:13:58.609Z,54.00
2018-08-03T16:16:27.401Z,54.10
2018-08-03T16:18:56.344Z,54.20
2018-08-03T16:21:25.155Z,54.00
2018-08-03T16:23:53.939Z,53.80
2018-08-03T16:26:22.729Z,53.90
2018-08-03T16:28:51.794Z,53.50
2018-08-03T16:31:20.590Z,53.60
2018-08-03T16:33:49.390Z,53.60
2018-08-03T16:36:18.187Z,53.40
2018-08-03T16:38:47.066Z,53.70
2018-08-03T16:41:15.834Z,53.40
2018-08-03T16:43:44.658Z,53.70
2018-08-03T16:46:13.458Z,53.10
2018-08-03T16:48:42.253Z,53.10
2018-08-03T16:51:11.055Z,52.90
2018-08-03T16:53:39.850Z,53.00
2018-08-03T16:56:08.646Z,53.10
2018-08-03T16:58:37.434Z,53.00
2018-08-03T17:01:06.237Z,52.90
2018-08-03T17:03:35.021Z,52.90
2018-08-03T17:06:03.818Z,53.50
2018-08-03T17:08:32.615Z,53.80
2018-08-03T17:11:01.439Z,54.10
2018-08-03T17:13:30.533Z,53.90
2018-08-03T17:15:59.366Z,53.90
2018-08-03T17:18:28.194Z,53.90
2018-08-03T17:20:56.992Z,54.30
2018-08-03T17:23:25.782Z,54.20
2018-08-03T17:25:54.702Z,54.70
2018-08-03T17:28:23.498Z,54.70
2018-08-03T17:30:52.292Z,54.50
2018-08-03T17:33:21.135Z,55.00
2018-08-03T17:35:50.034Z,55.20
2018-08-03T17:38:18.954Z,54.90
2018-08-03T17:40:48.278Z,55.20
2018-08-03T17:43:17.122Z,54.70
2018-08-03T17:45:45.908Z,55.00
2018-08-03T17:48:14.699Z,54.40
2018-08-03T17:50:43.506Z,54.70
2018-08-03T17:53:12.512Z,54.70
2018-08-03T17:55:41.330Z,54.80
2018-08-03T17:58:10.146Z,55.00
2018-08-03T18:00:39.257Z,54.80
2018-08-03T18:03:08.065Z,54.80
2018-08-03T18:05:36.846Z,54.60
2018-08-03T18:08:05.646Z,54.90
2018-08-03T18:10:34.434Z,55.00
2018-08-03T18:13:03.230Z,54.70
2018-08-03T18:15:32.014Z,55.30
2018-08-03T18:18:00.806Z,54.90
2018-08-03T18:20:29.601Z,55.10
2018-08-03T18:22:58.478Z,55.30
2018-08-03T18:25:27.262Z,55.30
2018-08-03T18:27:56.072Z,55.50
2018-08-03T18:30:24.855Z,55.50
2018-08-03T18:32:53.647Z,55.80
2018-08-03T18:35:22.462Z,55.90
2018-08-03T18:37:51.274Z,56.10
2018-08-03T18:40:20.094Z,56.20
2018-08-03T18:42:48.934Z,56.50
2018-08-03T18:45:17.766Z,56.90
2018-08-03T18:47:46.551Z,57.60
2018-08-03T18:50:15.354Z,59.00
2018-08-03T18:52:44.350Z,59.90
2018-08-03T18:55:13.153Z,60.40
2018-08-03T18:57:41.942Z,60.80
2018-08-03T19:00:10.734Z,61.40
2018-08-03T19:02:39.526Z,61.70
2018-08-03T19:05:08.794Z,61.90
2018-08-03T19:07:37.585Z,62.40
2018-08-03T19:10:06.419Z,62.60
2018-08-03T19:12:35.165Z,63.00
2018-08-03T19:15:03.994Z,63.30
2018-08-03T19:17:32.867Z,63.60
2018-08-03T19:20:01.677Z,64.10
2018-08-03T19:22:30.466Z,64.20
2018-08-03T19:24:59.342Z,64.70
2018-08-03T19:27:28.130Z,65.00
2018-08-03T19:29:56.927Z,65.20
2018-08-03T19:32:25.714Z,65.50
2018-08-03T19:34:54.686Z,65.60
2018-08-03T19:37:23.470Z,65.50
2018-08-03T19:39:52.334Z,65.50
2018-08-03T19:42:21.135Z,65.60
2018-08-03T19:44:49.938Z,65.80
2018-08-03T19:47:18.792Z,65.80
2018-08-03T19:49:47.555Z,65.90
2018-08-03T19:52:16.355Z,66.00
2018-08-03T19:54:45.159Z,66.00
2018-08-03T19:57:13.973Z,66.00
2018-08-03T19:59:42.776Z,66.00
2018-08-03T20:02:11.570Z,66.30
2018-08-03T20:04:40.358Z,66.40
2018-08-03T20:07:09.166Z,66.60
2018-08-03T20:09:37.958Z,66.50
2018-08-03T20:12:06.790Z,66.70
2018-08-03T20:14:35.589Z,66.70
2018-08-03T20:17:06.949Z,66.90
2018-08-03T20:19:36.014Z,67.20
2018-08-03T20:22:10.173Z,67.20
2018-08-03T20:24:38.962Z,67.20
2018-08-03T20:27:07.871Z,67.10
2018-08-03T20:29:36.658Z,67.30
2018-08-03T20:32:06.258Z,67.50
2018-08-03T20:34:36.130Z,67.60
2018-08-03T20:37:05.130Z,67.70
2018-08-03T20:39:34.665Z,67.90
2018-08-03T20:42:03.650Z,67.90
2018-08-03T20:44:32.452Z,67.90
2018-08-03T20:47:01.479Z,68.20
2018-08-03T20:49:30.262Z,68.40
2018-08-03T20:51:59.106Z,68.60
2018-08-03T20:54:27.861Z,68.90
2018-08-03T20:56:56.645Z,68.80
2018-08-03T20:59:25.446Z,69.00
2018-08-03T21:01:54.254Z,69.40
2018-08-03T21:04:23.027Z,69.40
2018-08-03T21:06:51.820Z,69.80
2018-08-03T21:09:20.614Z,70.00
2018-08-03T21:11:49.422Z,70.20
2018-08-03T21:14:18.201Z,70.40
2018-08-03T21:16:46.994Z,70.30
2018-08-03T21:19:15.783Z,70.50
2018-08-03T21:21:44.578Z,70.60
2018-08-03T21:24:13.375Z,70.90
2018-08-03T21:26:42.170Z,71.30
2018-08-03T21:29:10.958Z,71.20
2018-08-03T21:31:39.766Z,71.70
2018-08-03T21:34:08.559Z,71.90
2018-08-03T21:36:37.358Z,71.90
2018-08-03T21:39:08.121Z,72.30
2018-08-03T21:41:36.965Z,72.50
2018-08-03T21:44:05.770Z,73.20
2018-08-03T21:46:34.598Z,72.80
2018-08-03T21:49:03.679Z,73.50
2018-08-03T21:51:33.122Z,74.40
2018-08-03T21:54:01.921Z,74.90
2018-08-03T21:56:30.715Z,75.10
2018-08-03T21:58:59.553Z,75.20
2018-08-03T22:01:28.354Z,74.80
2018-08-03T22:03:57.159Z,74.90
2018-08-03T22:06:25.945Z,75.10
2018-08-03T22:08:54.734Z,75.30
2018-08-03T22:11:23.521Z,74.90
2018-08-03T22:13:52.359Z,75.30
2018-08-03T22:16:21.143Z,74.70
2018-08-03T22:18:49.945Z,75.20
2018-08-03T22:21:18.738Z,74.90
2018-08-03T22:23:47.582Z,75.10
2018-08-03T22:26:16.370Z,75.20
2018-08-03T22:28:45.189Z,75.40
2018-08-03T22:31:14.079Z,75.80
2018-08-03T22:33:42.865Z,75.80
2018-08-03T22:36:11.649Z,75.90
2018-08-03T22:38:40.470Z,76.00
2018-08-03T22:41:09.362Z,76.50
2018-08-03T22:43:38.231Z,76.70
2018-08-03T22:46:07.082Z,76.70
2018-08-03T22:48:35.883Z,76.60
2018-08-03T22:51:04.705Z,77.10
2018-08-03T22:53:33.507Z,77.00
2018-08-03T22:56:02.306Z,77.90
2018-08-03T22:58:31.102Z,77.70
2018-08-03T23:00:59.896Z,77.70
2018-08-03T23:03:28.696Z,78.20
2018-08-03T23:05:57.481Z,78.50
2018-08-03T23:08:26.315Z,78.80
2018-08-03T23:10:55.090Z,78.60
2018-08-03T23:13:23.869Z,78.50
2018-08-03T23:15:52.670Z,78.50
2018-08-03T23:18:21.502Z,78.80
2018-08-03T23:20:50.304Z,77.40
2018-08-03T23:23:19.091Z,77.50
2018-08-03T23:25:47.885Z,77.20
2018-08-03T23:28:16.678Z,76.90
2018-08-03T23:30:45.478Z,77.10
2018-08-03T23:33:14.278Z,76.80
2018-08-03T23:35:43.066Z,76.30
2018-08-03T23:38:11.854Z,75.80
2018-08-03T23:40:40.645Z,74.90
2018-08-03T23:43:09.435Z,75.10
2018-08-03T23:45:38.234Z,74.60
2018-08-03T23:48:07.013Z,74.80
2018-08-03T23:50:35.826Z,74.90
2018-08-03T23:53:04.624Z,74.70
2018-08-03T23:55:33.413Z,74.70
2018-08-03T23:58:02.197Z,74.20
